sensor_id;sensor_type;location;lat;lon;timestamp;temperature;humidity
6986;DHT22;3533;51.246;6.850;2024-02-28T00:02:22;19.20;42.90
6986;DHT22;3533;51.246;6.850;2024-02-28T00:04:47;19.20;42.90
6986;DHT22;3533;51.246;6.850;2024-02-28T00:07:13;19.20;42.90
6986;DHT22;3533;51.246;6.850;2024-02-28T00:09:38;19.20;42.90
6986;DHT22;3533;51.246;6.850;2024-02-28T00:12:04;19.20;42.90
6986;DHT22;3533;51.246;6.850;2024-02-28T00:14:30;19.20;42.90
6986;DHT22;3533;51.246;6.850;2024-02-28T00:16:55;19.20;42.90
6986;DHT22;3533;51.246;6.850;2024-02-28T00:19:21;19.20;42.90
6986;DHT22;3533;51.246;6.850;2024-02-28T00:21:47;19.20;42.90
6986;DHT22;3533;51.246;6.850;2024-02-28T00:24:13;19.20;42.90
6986;DHT22;3533;51.246;6.850;2024-02-28T00:26:42;19.20;42.90
6986;DHT22;3533;51.246;6.850;2024-02-28T00:29:11;19.20;42.90
6986;DHT22;3533;51.246;6.850;2024-02-28T00:31:36;19.20;42.90
6986;DHT22;3533;51.246;6.850;2024-02-28T00:34:02;19.20;42.90
6986;DHT22;3533;51.246;6.850;2024-02-28T00:36:28;19.20;42.90
6986;DHT22;3533;51.246;6.850;2024-02-28T00:38:53;19.20;42.90
6986;DHT22;3533;51.246;6.850;2024-02-28T00:41:19;19.20;42.90
6986;DHT22;3533;51.246;6.850;2024-02-28T00:43:44;19.20;42.80
6986;DHT22;3533;51.246;6.850;2024-02-28T00:46:10;19.20;42.90
6986;DHT22;3533;51.246;6.850;2024-02-28T00:48:40;19.20;42.90
6986;DHT22;3533;51.246;6.850;2024-02-28T00:51:06;19.20;42.90
6986;DHT22;3533;51.246;6.850;2024-02-28T00:53:33;19.20;42.90
6986;DHT22;3533;51.246;6.850;2024-02-28T00:55:58;19.20;42.90
6986;DHT22;3533;51.246;6.850;2024-02-28T00:58:24;19.20;43.00
6986;DHT22;3533;51.246;6.850;2024-02-28T01:00:51;19.20;42.90
6986;DHT22;3533;51.246;6.850;2024-02-28T01:03:17;19.20;42.90
6986;DHT22;3533;51.246;6.850;2024-02-28T01:05:43;19.20;42.90
6986;DHT22;3533;51.246;6.850;2024-02-28T01:08:09;19.20;42.90
6986;DHT22;3533;51.246;6.850;2024-02-28T01:10:35;19.10;42.80
6986;DHT22;3533;51.246;6.850;2024-02-28T01:13:02;19.20;42.90
6986;DHT22;3533;51.246;6.850;2024-02-28T01:15:27;19.20;42.90
6986;DHT22;3533;51.246;6.850;2024-02-28T01:17:53;19.20;42.90
6986;DHT22;3533;51.246;6.850;2024-02-28T01:20:19;19.10;42.80
6986;DHT22;3533;51.246;6.850;2024-02-28T01:22:44;19.20;42.90
6986;DHT22;3533;51.246;6.850;2024-02-28T01:25:10;19.20;42.90
6986;DHT22;3533;51.246;6.850;2024-02-28T01:27:35;19.10;42.80
6986;DHT22;3533;51.246;6.850;2024-02-28T01:30:02;19.20;42.80
6986;DHT22;3533;51.246;6.850;2024-02-28T01:32:29;19.20;42.90
6986;DHT22;3533;51.246;6.850;2024-02-28T01:34:55;19.10;42.80
6986;DHT22;3533;51.246;6.850;2024-02-28T01:37:21;19.10;42.80
6986;DHT22;3533;51.246;6.850;2024-02-28T01:39:46;19.20;42.80
6986;DHT22;3533;51.246;6.850;2024-02-28T01:42:14;19.10;42.80
6986;DHT22;3533;51.246;6.850;2024-02-28T01:44:48;19.10;42.80
6986;DHT22;3533;51.246;6.850;2024-02-28T01:47:17;19.10;42.70
6986;DHT22;3533;51.246;6.850;2024-02-28T01:49:44;19.10;42.70
6986;DHT22;3533;51.246;6.850;2024-02-28T01:52:12;19.10;42.70
6986;DHT22;3533;51.246;6.850;2024-02-28T01:54:38;19.20;42.80
6986;DHT22;3533;51.246;6.850;2024-02-28T01:57:05;19.10;42.70
6986;DHT22;3533;51.246;6.850;2024-02-28T01:59:32;19.10;42.70
6986;DHT22;3533;51.246;6.850;2024-02-28T02:01:58;19.10;42.70
6986;DHT22;3533;51.246;6.850;2024-02-28T02:04:24;19.10;42.70
6986;DHT22;3533;51.246;6.850;2024-02-28T02:06:50;19.10;42.70
6986;DHT22;3533;51.246;6.850;2024-02-28T02:09:18;19.10;42.70
6986;DHT22;3533;51.246;6.850;2024-02-28T02:11:43;19.10;42.70
6986;DHT22;3533;51.246;6.850;2024-02-28T02:14:10;19.20;42.80
6986;DHT22;3533;51.246;6.850;2024-02-28T02:16:35;19.10;42.70
6986;DHT22;3533;51.246;6.850;2024-02-28T02:19:01;19.10;42.70
6986;DHT22;3533;51.246;6.850;2024-02-28T02:21:31;19.10;42.70
6986;DHT22;3533;51.246;6.850;2024-02-28T02:23:59;19.10;42.70
6986;DHT22;3533;51.246;6.850;2024-02-28T02:26:25;19.10;42.70
6986;DHT22;3533;51.246;6.850;2024-02-28T02:28:51;19.10;42.70
6986;DHT22;3533;51.246;6.850;2024-02-28T02:31:16;19.10;42.70
6986;DHT22;3533;51.246;6.850;2024-02-28T02:33:42;19.10;42.70
6986;DHT22;3533;51.246;6.850;2024-02-28T02:36:07;19.10;42.70
6986;DHT22;3533;51.246;6.850;2024-02-28T02:38:33;19.10;42.70
6986;DHT22;3533;51.246;6.850;2024-02-28T02:40:59;19.10;42.70
6986;DHT22;3533;51.246;6.850;2024-02-28T02:43:24;19.10;42.70
6986;DHT22;3533;51.246;6.850;2024-02-28T02:45:50;19.10;42.70
6986;DHT22;3533;51.246;6.850;2024-02-28T02:48:15;19.10;42.60
6986;DHT22;3533;51.246;6.850;2024-02-28T02:50:41;19.10;42.70
6986;DHT22;3533;51.246;6.850;2024-02-28T02:53:09;19.10;42.70
6986;DHT22;3533;51.246;6.850;2024-02-28T02:55:35;19.10;42.70
6986;DHT22;3533;51.246;6.850;2024-02-28T02:58:01;19.10;42.60
6986;DHT22;3533;51.246;6.850;2024-02-28T03:00:29;19.10;42.60
6986;DHT22;3533;51.246;6.850;2024-02-28T03:02:54;19.10;42.60
6986;DHT22;3533;51.246;6.850;2024-02-28T03:05:20;19.10;43.10
6986;DHT22;3533;51.246;6.850;2024-02-28T03:07:46;19.10;42.60
6986;DHT22;3533;51.246;6.850;2024-02-28T03:10:11;19.10;42.70
6986;DHT22;3533;51.246;6.850;2024-02-28T03:12:37;19.10;42.60
6986;DHT22;3533;51.246;6.850;2024-02-28T03:15:03;19.10;42.60
6986;DHT22;3533;51.246;6.850;2024-02-28T03:17:29;19.10;42.60
6986;DHT22;3533;51.246;6.850;2024-02-28T03:19:54;19.10;42.60
6986;DHT22;3533;51.246;6.850;2024-02-28T03:22:20;19.10;42.60
6986;DHT22;3533;51.246;6.850;2024-02-28T03:24:46;19.10;42.60
6986;DHT22;3533;51.246;6.850;2024-02-28T03:27:11;19.10;42.60
6986;DHT22;3533;51.246;6.850;2024-02-28T03:29:37;19.10;42.60
6986;DHT22;3533;51.246;6.850;2024-02-28T03:32:03;19.10;42.60
6986;DHT22;3533;51.246;6.850;2024-02-28T03:34:29;19.10;42.60
6986;DHT22;3533;51.246;6.850;2024-02-28T03:36:55;19.10;42.60
6986;DHT22;3533;51.246;6.850;2024-02-28T03:39:20;19.10;42.60
6986;DHT22;3533;51.246;6.850;2024-02-28T03:41:46;19.10;42.60
6986;DHT22;3533;51.246;6.850;2024-02-28T03:44:12;19.10;42.60
6986;DHT22;3533;51.246;6.850;2024-02-28T03:46:37;19.10;42.60
6986;DHT22;3533;51.246;6.850;2024-02-28T03:49:03;19.10;42.60
6986;DHT22;3533;51.246;6.850;2024-02-28T03:51:28;19.10;43.40
6986;DHT22;3533;51.246;6.850;2024-02-28T03:53:55;19.10;42.60
6986;DHT22;3533;51.246;6.850;2024-02-28T03:56:25;19.10;42.60
6986;DHT22;3533;51.246;6.850;2024-02-28T03:58:51;19.10;42.60
6986;DHT22;3533;51.246;6.850;2024-02-28T04:01:17;19.10;42.60
6986;DHT22;3533;51.246;6.850;2024-02-28T04:03:43;19.10;42.60
6986;DHT22;3533;51.246;6.850;2024-02-28T04:06:09;19.10;42.60
6986;DHT22;3533;51.246;6.850;2024-02-28T04:08:35;19.10;42.60
6986;DHT22;3533;51.246;6.850;2024-02-28T04:11:01;19.10;42.50
6986;DHT22;3533;51.246;6.850;2024-02-28T04:13:26;19.10;42.60
6986;DHT22;3533;51.246;6.850;2024-02-28T04:15:52;19.10;42.50
6986;DHT22;3533;51.246;6.850;2024-02-28T04:18:17;19.10;42.50
6986;DHT22;3533;51.246;6.850;2024-02-28T04:20:43;19.10;42.50
6986;DHT22;3533;51.246;6.850;2024-02-28T04:23:09;19.10;42.60
6986;DHT22;3533;51.246;6.850;2024-02-28T04:25:34;19.10;42.50
6986;DHT22;3533;51.246;6.850;2024-02-28T04:28:01;19.10;42.50
6986;DHT22;3533;51.246;6.850;2024-02-28T04:30:27;19.10;43.30
6986;DHT22;3533;51.246;6.850;2024-02-28T04:32:53;19.10;42.50
6986;DHT22;3533;51.246;6.850;2024-02-28T04:35:18;19.10;42.50
6986;DHT22;3533;51.246;6.850;2024-02-28T04:37:45;19.10;42.50
6986;DHT22;3533;51.246;6.850;2024-02-28T04:40:11;19.10;42.50
6986;DHT22;3533;51.246;6.850;2024-02-28T04:42:37;19.10;42.40
6986;DHT22;3533;51.246;6.850;2024-02-28T04:45:03;19.10;42.50
6986;DHT22;3533;51.246;6.850;2024-02-28T04:47:29;19.10;42.40
6986;DHT22;3533;51.246;6.850;2024-02-28T04:49:56;19.10;42.50
6986;DHT22;3533;51.246;6.850;2024-02-28T04:52:21;19.10;42.50
6986;DHT22;3533;51.246;6.850;2024-02-28T04:54:47;19.10;42.50
6986;DHT22;3533;51.246;6.850;2024-02-28T04:57:13;19.10;42.40
6986;DHT22;3533;51.246;6.850;2024-02-28T04:59:38;19.10;42.40
6986;DHT22;3533;51.246;6.850;2024-02-28T05:02:04;19.10;42.30
6986;DHT22;3533;51.246;6.850;2024-02-28T05:04:30;19.20;42.40
6986;DHT22;3533;51.246;6.850;2024-02-28T05:06:56;19.20;42.40
6986;DHT22;3533;51.246;6.850;2024-02-28T05:09:21;19.20;42.40
6986;DHT22;3533;51.246;6.850;2024-02-28T05:11:48;19.20;42.40
6986;DHT22;3533;51.246;6.850;2024-02-28T05:14:13;19.20;42.30
6986;DHT22;3533;51.246;6.850;2024-02-28T05:16:39;19.20;42.30
6986;DHT22;3533;51.246;6.850;2024-02-28T05:19:05;19.20;42.20
6986;DHT22;3533;51.246;6.850;2024-02-28T05:21:30;19.20;42.10
6986;DHT22;3533;51.246;6.850;2024-02-28T05:23:56;19.20;42.10
6986;DHT22;3533;51.246;6.850;2024-02-28T05:26:21;19.20;42.10
6986;DHT22;3533;51.246;6.850;2024-02-28T05:28:47;19.20;42.10
6986;DHT22;3533;51.246;6.850;2024-02-28T05:31:23;19.20;42.10
6986;DHT22;3533;51.246;6.850;2024-02-28T05:33:54;19.20;42.00
6986;DHT22;3533;51.246;6.850;2024-02-28T05:36:30;19.20;42.00
6986;DHT22;3533;51.246;6.850;2024-02-28T05:38:57;19.20;42.00
6986;DHT22;3533;51.246;6.850;2024-02-28T05:41:22;19.20;42.00
6986;DHT22;3533;51.246;6.850;2024-02-28T05:43:49;19.20;42.10
6986;DHT22;3533;51.246;6.850;2024-02-28T05:46:16;19.20;42.10
6986;DHT22;3533;51.246;6.850;2024-02-28T05:48:42;19.30;42.20
6986;DHT22;3533;51.246;6.850;2024-02-28T05:51:08;19.30;42.10
6986;DHT22;3533;51.246;6.850;2024-02-28T05:53:34;19.20;42.10
6986;DHT22;3533;51.246;6.850;2024-02-28T05:56:07;19.30;42.20
6986;DHT22;3533;51.246;6.850;2024-02-28T05:58:43;19.30;42.20
6986;DHT22;3533;51.246;6.850;2024-02-28T06:01:10;19.30;42.10
6986;DHT22;3533;51.246;6.850;2024-02-28T06:03:36;19.30;42.20
6986;DHT22;3533;51.246;6.850;2024-02-28T06:06:02;19.20;42.10
6986;DHT22;3533;51.246;6.850;2024-02-28T06:08:32;19.30;42.20
6986;DHT22;3533;51.246;6.850;2024-02-28T06:10:57;19.30;42.20
6986;DHT22;3533;51.246;6.850;2024-02-28T06:13:23;19.30;42.20
6986;DHT22;3533;51.246;6.850;2024-02-28T06:15:48;19.30;42.20
6986;DHT22;3533;51.246;6.850;2024-02-28T06:18:14;19.30;42.10
6986;DHT22;3533;51.246;6.850;2024-02-28T06:20:40;19.30;42.10
6986;DHT22;3533;51.246;6.850;2024-02-28T06:23:05;19.30;42.10
6986;DHT22;3533;51.246;6.850;2024-02-28T06:25:31;19.30;42.20
6986;DHT22;3533;51.246;6.850;2024-02-28T06:27:59;19.30;42.20
6986;DHT22;3533;51.246;6.850;2024-02-28T06:30:25;19.30;42.20
6986;DHT22;3533;51.246;6.850;2024-02-28T06:32:51;19.30;42.10
6986;DHT22;3533;51.246;6.850;2024-02-28T06:35:17;19.30;42.10
6986;DHT22;3533;51.246;6.850;2024-02-28T06:37:43;19.30;42.10
6986;DHT22;3533;51.246;6.850;2024-02-28T06:40:15;19.30;42.00
6986;DHT22;3533;51.246;6.850;2024-02-28T06:42:41;19.30;42.10
6986;DHT22;3533;51.246;6.850;2024-02-28T06:45:07;19.30;42.00
6986;DHT22;3533;51.246;6.850;2024-02-28T06:47:34;19.30;42.00
6986;DHT22;3533;51.246;6.850;2024-02-28T06:49:59;19.30;41.90
6986;DHT22;3533;51.246;6.850;2024-02-28T06:52:25;19.30;42.80
6986;DHT22;3533;51.246;6.850;2024-02-28T06:54:51;19.20;41.80
6986;DHT22;3533;51.246;6.850;2024-02-28T06:57:17;19.30;42.00
6986;DHT22;3533;51.246;6.850;2024-02-28T06:59:42;19.30;41.90
6986;DHT22;3533;51.246;6.850;2024-02-28T07:02:08;19.30;41.90
6986;DHT22;3533;51.246;6.850;2024-02-28T07:04:33;19.30;41.90
6986;DHT22;3533;51.246;6.850;2024-02-28T07:06:59;19.30;42.00
6986;DHT22;3533;51.246;6.850;2024-02-28T07:09:24;19.30;42.00
6986;DHT22;3533;51.246;6.850;2024-02-28T07:11:55;19.30;42.00
6986;DHT22;3533;51.246;6.850;2024-02-28T07:14:20;19.30;42.00
6986;DHT22;3533;51.246;6.850;2024-02-28T07:16:46;19.30;42.00
6986;DHT22;3533;51.246;6.850;2024-02-28T07:19:12;19.30;42.00
6986;DHT22;3533;51.246;6.850;2024-02-28T07:21:37;19.30;42.00
6986;DHT22;3533;51.246;6.850;2024-02-28T07:24:03;19.30;42.00
6986;DHT22;3533;51.246;6.850;2024-02-28T07:26:30;19.30;42.00
6986;DHT22;3533;51.246;6.850;2024-02-28T07:28:55;19.30;42.00
6986;DHT22;3533;51.246;6.850;2024-02-28T07:31:21;19.30;42.00
6986;DHT22;3533;51.246;6.850;2024-02-28T07:33:48;19.30;42.10
6986;DHT22;3533;51.246;6.850;2024-02-28T07:36:13;19.30;42.00
6986;DHT22;3533;51.246;6.850;2024-02-28T07:38:41;19.20;41.90
6986;DHT22;3533;51.246;6.850;2024-02-28T07:41:07;19.30;42.00
6986;DHT22;3533;51.246;6.850;2024-02-28T07:43:33;19.30;42.00
6986;DHT22;3533;51.246;6.850;2024-02-28T07:46:06;19.20;41.90
6986;DHT22;3533;51.246;6.850;2024-02-28T07:48:31;19.20;42.00
6986;DHT22;3533;51.246;6.850;2024-02-28T07:50:57;19.20;42.00
6986;DHT22;3533;51.246;6.850;2024-02-28T07:53:22;19.20;42.00
6986;DHT22;3533;51.246;6.850;2024-02-28T07:55:48;19.30;42.10
6986;DHT22;3533;51.246;6.850;2024-02-28T07:58:14;19.30;42.10
6986;DHT22;3533;51.246;6.850;2024-02-28T08:00:42;19.20;42.00
6986;DHT22;3533;51.246;6.850;2024-02-28T08:03:09;19.20;42.00
6986;DHT22;3533;51.246;6.850;2024-02-28T08:05:35;19.30;42.10
6986;DHT22;3533;51.246;6.850;2024-02-28T08:08:05;19.20;42.00
6986;DHT22;3533;51.246;6.850;2024-02-28T08:10:31;19.30;42.10
6986;DHT22;3533;51.246;6.850;2024-02-28T08:12:57;19.30;42.10
6986;DHT22;3533;51.246;6.850;2024-02-28T08:15:23;19.30;42.10
6986;DHT22;3533;51.246;6.850;2024-02-28T08:17:48;19.30;42.10
6986;DHT22;3533;51.246;6.850;2024-02-28T08:20:14;19.20;42.10
6986;DHT22;3533;51.246;6.850;2024-02-28T08:22:40;19.30;42.20
6986;DHT22;3533;51.246;6.850;2024-02-28T08:25:06;19.20;42.00
6986;DHT22;3533;51.246;6.850;2024-02-28T08:27:32;19.20;42.00
6986;DHT22;3533;51.246;6.850;2024-02-28T08:29:59;19.20;42.00
6986;DHT22;3533;51.246;6.850;2024-02-28T08:32:25;19.20;42.00
6986;DHT22;3533;51.246;6.850;2024-02-28T08:34:50;19.20;42.00
6986;DHT22;3533;51.246;6.850;2024-02-28T08:37:16;19.20;42.00
6986;DHT22;3533;51.246;6.850;2024-02-28T08:39:42;19.20;42.10
6986;DHT22;3533;51.246;6.850;2024-02-28T08:42:08;19.20;42.10
6986;DHT22;3533;51.246;6.850;2024-02-28T08:44:33;19.20;42.00
6986;DHT22;3533;51.246;6.850;2024-02-28T08:46:59;19.20;42.10
6986;DHT22;3533;51.246;6.850;2024-02-28T08:49:24;19.20;42.10
6986;DHT22;3533;51.246;6.850;2024-02-28T08:51:50;19.20;42.00
6986;DHT22;3533;51.246;6.850;2024-02-28T08:54:15;19.20;42.00
6986;DHT22;3533;51.246;6.850;2024-02-28T08:56:41;19.20;42.00
6986;DHT22;3533;51.246;6.850;2024-02-28T08:59:07;19.20;42.00
6986;DHT22;3533;51.246;6.850;2024-02-28T09:01:32;19.20;42.00
6986;DHT22;3533;51.246;6.850;2024-02-28T09:04:02;19.20;42.10
6986;DHT22;3533;51.246;6.850;2024-02-28T09:06:27;19.20;42.10
6986;DHT22;3533;51.246;6.850;2024-02-28T09:08:53;19.20;42.00
6986;DHT22;3533;51.246;6.850;2024-02-28T09:11:19;19.20;42.00
6986;DHT22;3533;51.246;6.850;2024-02-28T09:13:44;19.20;42.10
6986;DHT22;3533;51.246;6.850;2024-02-28T09:16:10;19.20;42.00
6986;DHT22;3533;51.246;6.850;2024-02-28T09:18:35;19.20;42.10
6986;DHT22;3533;51.246;6.850;2024-02-28T09:21:01;19.20;42.00
6986;DHT22;3533;51.246;6.850;2024-02-28T09:23:26;19.20;42.80
6986;DHT22;3533;51.246;6.850;2024-02-28T09:25:52;19.20;42.10
6986;DHT22;3533;51.246;6.850;2024-02-28T09:28:18;19.10;42.00
6986;DHT22;3533;51.246;6.850;2024-02-28T09:30:43;19.10;42.00
6986;DHT22;3533;51.246;6.850;2024-02-28T09:33:09;19.10;42.00
6986;DHT22;3533;51.246;6.850;2024-02-28T09:35:35;19.20;42.10
6986;DHT22;3533;51.246;6.850;2024-02-28T09:38:02;19.20;42.10
6986;DHT22;3533;51.246;6.850;2024-02-28T09:40:28;19.10;42.00
6986;DHT22;3533;51.246;6.850;2024-02-28T09:43:00;19.20;42.00
6986;DHT22;3533;51.246;6.850;2024-02-28T09:45:26;19.20;42.10
6986;DHT22;3533;51.246;6.850;2024-02-28T09:47:52;19.10;42.00
6986;DHT22;3533;51.246;6.850;2024-02-28T09:50:18;19.10;42.00
6986;DHT22;3533;51.246;6.850;2024-02-28T09:52:45;19.20;42.10
6986;DHT22;3533;51.246;6.850;2024-02-28T09:55:10;19.10;42.00
6986;DHT22;3533;51.246;6.850;2024-02-28T09:57:36;19.10;42.70
6986;DHT22;3533;51.246;6.850;2024-02-28T10:00:03;19.10;42.00
6986;DHT22;3533;51.246;6.850;2024-02-28T10:02:29;19.10;42.00
6986;DHT22;3533;51.246;6.850;2024-02-28T10:04:56;19.10;42.00
6986;DHT22;3533;51.246;6.850;2024-02-28T10:07:23;19.20;42.00
6986;DHT22;3533;51.246;6.850;2024-02-28T10:09:49;19.10;42.00
6986;DHT22;3533;51.246;6.850;2024-02-28T10:12:14;19.10;42.00
6986;DHT22;3533;51.246;6.850;2024-02-28T10:14:40;19.10;42.00
6986;DHT22;3533;51.246;6.850;2024-02-28T10:17:06;19.10;42.00
6986;DHT22;3533;51.246;6.850;2024-02-28T10:19:33;19.10;42.00
6986;DHT22;3533;51.246;6.850;2024-02-28T10:21:59;19.10;42.00
6986;DHT22;3533;51.246;6.850;2024-02-28T10:24:24;19.20;42.00
6986;DHT22;3533;51.246;6.850;2024-02-28T10:26:50;19.10;42.00
6986;DHT22;3533;51.246;6.850;2024-02-28T10:29:23;19.10;41.90
6986;DHT22;3533;51.246;6.850;2024-02-28T10:31:49;19.10;42.00
6986;DHT22;3533;51.246;6.850;2024-02-28T10:34:17;19.10;42.00
6986;DHT22;3533;51.246;6.850;2024-02-28T10:36:43;19.10;42.00
6986;DHT22;3533;51.246;6.850;2024-02-28T10:39:11;19.10;42.00
6986;DHT22;3533;51.246;6.850;2024-02-28T10:41:40;19.10;42.00
6986;DHT22;3533;51.246;6.850;2024-02-28T10:44:07;19.10;41.90
6986;DHT22;3533;51.246;6.850;2024-02-28T10:46:33;19.10;42.00
6986;DHT22;3533;51.246;6.850;2024-02-28T10:48:59;19.10;42.00
6986;DHT22;3533;51.246;6.850;2024-02-28T10:51:25;19.10;42.00
6986;DHT22;3533;51.246;6.850;2024-02-28T10:54:01;19.10;42.00
6986;DHT22;3533;51.246;6.850;2024-02-28T10:56:29;19.10;42.00
6986;DHT22;3533;51.246;6.850;2024-02-28T10:58:59;19.10;42.00
6986;DHT22;3533;51.246;6.850;2024-02-28T11:01:25;19.20;42.00
6986;DHT22;3533;51.246;6.850;2024-02-28T11:03:51;19.10;41.90
6986;DHT22;3533;51.246;6.850;2024-02-28T11:06:18;19.10;42.70
6986;DHT22;3533;51.246;6.850;2024-02-28T11:08:49;19.10;41.90
6986;DHT22;3533;51.246;6.850;2024-02-28T11:11:18;19.10;41.90
6986;DHT22;3533;51.246;6.850;2024-02-28T11:13:58;19.10;41.80
6986;DHT22;3533;51.246;6.850;2024-02-28T11:16:30;19.10;41.90
6986;DHT22;3533;51.246;6.850;2024-02-28T11:18:56;19.10;41.90
6986;DHT22;3533;51.246;6.850;2024-02-28T11:21:28;19.10;41.90
6986;DHT22;3533;51.246;6.850;2024-02-28T11:23:58;19.10;41.90
6986;DHT22;3533;51.246;6.850;2024-02-28T11:26:24;19.10;41.90
6986;DHT22;3533;51.246;6.850;2024-02-28T11:28:50;19.10;41.80
6986;DHT22;3533;51.246;6.850;2024-02-28T11:31:16;19.10;41.80
6986;DHT22;3533;51.246;6.850;2024-02-28T11:33:44;19.10;41.90
6986;DHT22;3533;51.246;6.850;2024-02-28T11:36:11;19.20;41.90
6986;DHT22;3533;51.246;6.850;2024-02-28T11:38:39;19.10;41.80
6986;DHT22;3533;51.246;6.850;2024-02-28T11:41:05;19.20;41.90
6986;DHT22;3533;51.246;6.850;2024-02-28T11:43:34;19.10;41.80
6986;DHT22;3533;51.246;6.850;2024-02-28T11:46:08;19.20;41.90
6986;DHT22;3533;51.246;6.850;2024-02-28T11:48:35;19.20;42.00
6986;DHT22;3533;51.246;6.850;2024-02-28T11:51:00;19.20;41.90
6986;DHT22;3533;51.246;6.850;2024-02-28T11:53:26;19.20;41.90
6986;DHT22;3533;51.246;6.850;2024-02-28T11:55:53;19.20;41.90
6986;DHT22;3533;51.246;6.850;2024-02-28T11:58:18;19.20;42.00
6986;DHT22;3533;51.246;6.850;2024-02-28T12:00:49;19.20;41.90
6986;DHT22;3533;51.246;6.850;2024-02-28T12:03:22;19.20;41.90
6986;DHT22;3533;51.246;6.850;2024-02-28T12:05:48;19.10;41.80
6986;DHT22;3533;51.246;6.850;2024-02-28T12:08:14;19.20;41.90
6986;DHT22;3533;51.246;6.850;2024-02-28T12:10:39;19.20;41.90
6986;DHT22;3533;51.246;6.850;2024-02-28T12:13:05;19.20;41.90
6986;DHT22;3533;51.246;6.850;2024-02-28T12:15:33;19.20;41.90
6986;DHT22;3533;51.246;6.850;2024-02-28T12:17:58;19.20;41.90
6986;DHT22;3533;51.246;6.850;2024-02-28T12:20:24;19.20;41.90
6986;DHT22;3533;51.246;6.850;2024-02-28T12:22:49;19.20;41.90
6986;DHT22;3533;51.246;6.850;2024-02-28T12:25:15;19.20;41.90
6986;DHT22;3533;51.246;6.850;2024-02-28T12:27:41;19.20;41.90
6986;DHT22;3533;51.246;6.850;2024-02-28T12:30:07;19.20;41.90
6986;DHT22;3533;51.246;6.850;2024-02-28T12:32:33;19.20;42.20
6986;DHT22;3533;51.246;6.850;2024-02-28T12:34:58;19.20;41.90
6986;DHT22;3533;51.246;6.850;2024-02-28T12:37:24;19.20;41.80
6986;DHT22;3533;51.246;6.850;2024-02-28T12:39:50;19.20;41.80
6986;DHT22;3533;51.246;6.850;2024-02-28T12:42:17;19.20;41.80
6986;DHT22;3533;51.246;6.850;2024-02-28T12:44:43;19.20;41.80
6986;DHT22;3533;51.246;6.850;2024-02-28T12:47:11;19.20;41.80
6986;DHT22;3533;51.246;6.850;2024-02-28T12:49:37;19.20;41.80
6986;DHT22;3533;51.246;6.850;2024-02-28T12:52:03;19.20;41.90
6986;DHT22;3533;51.246;6.850;2024-02-28T12:54:29;19.20;41.80
6986;DHT22;3533;51.246;6.850;2024-02-28T12:56:55;19.20;41.80
6986;DHT22;3533;51.246;6.850;2024-02-28T12:59:20;19.20;41.80
6986;DHT22;3533;51.246;6.850;2024-02-28T13:01:46;19.30;41.90
6986;DHT22;3533;51.246;6.850;2024-02-28T13:04:13;19.30;41.90
6986;DHT22;3533;51.246;6.850;2024-02-28T13:06:39;19.30;41.90
6986;DHT22;3533;51.246;6.850;2024-02-28T13:09:05;19.20;41.80
6986;DHT22;3533;51.246;6.850;2024-02-28T13:11:32;19.20;41.80
6986;DHT22;3533;51.246;6.850;2024-02-28T13:13:58;19.30;41.90
6986;DHT22;3533;51.246;6.850;2024-02-28T13:16:23;19.20;41.90
6986;DHT22;3533;51.246;6.850;2024-02-28T13:18:49;19.30;41.90
6986;DHT22;3533;51.246;6.850;2024-02-28T13:21:15;19.30;42.00
6986;DHT22;3533;51.246;6.850;2024-02-28T13:23:40;19.30;42.00
6986;DHT22;3533;51.246;6.850;2024-02-28T13:26:06;19.30;42.10
6986;DHT22;3533;51.246;6.850;2024-02-28T13:28:33;19.30;42.00
6986;DHT22;3533;51.246;6.850;2024-02-28T13:31:02;19.20;41.90
6986;DHT22;3533;51.246;6.850;2024-02-28T13:33:29;19.20;42.00
6986;DHT22;3533;51.246;6.850;2024-02-28T13:35:55;19.20;42.00
6986;DHT22;3533;51.246;6.850;2024-02-28T13:38:21;19.20;42.00
6986;DHT22;3533;51.246;6.850;2024-02-28T13:40:47;19.30;42.10
6986;DHT22;3533;51.246;6.850;2024-02-28T13:43:13;19.30;42.10
6986;DHT22;3533;51.246;6.850;2024-02-28T13:45:39;19.20;42.10
6986;DHT22;3533;51.246;6.850;2024-02-28T13:48:21;19.30;42.10
6986;DHT22;3533;51.246;6.850;2024-02-28T13:50:49;19.30;42.10
6986;DHT22;3533;51.246;6.850;2024-02-28T13:53:15;19.30;42.10
6986;DHT22;3533;51.246;6.850;2024-02-28T13:55:42;19.30;42.20
6986;DHT22;3533;51.246;6.850;2024-02-28T13:58:08;19.30;42.10
6986;DHT22;3533;51.246;6.850;2024-02-28T14:00:36;19.30;42.10
6986;DHT22;3533;51.246;6.850;2024-02-28T14:03:02;19.20;42.10
6986;DHT22;3533;51.246;6.850;2024-02-28T14:05:29;19.30;42.10
6986;DHT22;3533;51.246;6.850;2024-02-28T14:07:55;19.30;42.20
6986;DHT22;3533;51.246;6.850;2024-02-28T14:10:20;19.30;42.20
6986;DHT22;3533;51.246;6.850;2024-02-28T14:12:48;19.30;42.20
6986;DHT22;3533;51.246;6.850;2024-02-28T14:15:14;19.20;42.10
6986;DHT22;3533;51.246;6.850;2024-02-28T14:17:40;19.30;42.20
6986;DHT22;3533;51.246;6.850;2024-02-28T14:20:06;19.30;42.20
6986;DHT22;3533;51.246;6.850;2024-02-28T14:22:32;19.30;42.20
6986;DHT22;3533;51.246;6.850;2024-02-28T14:24:59;19.30;42.20
6986;DHT22;3533;51.246;6.850;2024-02-28T14:27:24;19.30;42.20
6986;DHT22;3533;51.246;6.850;2024-02-28T14:29:55;19.30;42.20
6986;DHT22;3533;51.246;6.850;2024-02-28T14:32:20;19.20;42.10
6986;DHT22;3533;51.246;6.850;2024-02-28T14:34:46;19.30;42.30
6986;DHT22;3533;51.246;6.850;2024-02-28T14:37:12;19.30;42.30
6986;DHT22;3533;51.246;6.850;2024-02-28T14:39:37;19.30;42.30
6986;DHT22;3533;51.246;6.850;2024-02-28T14:42:03;19.30;42.30
6986;DHT22;3533;51.246;6.850;2024-02-28T14:44:29;19.30;42.30
6986;DHT22;3533;51.246;6.850;2024-02-28T14:46:54;19.30;42.30
6986;DHT22;3533;51.246;6.850;2024-02-28T14:49:20;19.30;42.40
6986;DHT22;3533;51.246;6.850;2024-02-28T14:51:45;19.30;42.40
6986;DHT22;3533;51.246;6.850;2024-02-28T14:54:14;19.30;42.40
6986;DHT22;3533;51.246;6.850;2024-02-28T14:56:40;19.30;42.40
6986;DHT22;3533;51.246;6.850;2024-02-28T14:59:05;19.20;42.30
6986;DHT22;3533;51.246;6.850;2024-02-28T15:01:32;19.30;42.40
6986;DHT22;3533;51.246;6.850;2024-02-28T15:03:57;19.30;42.40
6986;DHT22;3533;51.246;6.850;2024-02-28T15:06:23;19.20;42.30
6986;DHT22;3533;51.246;6.850;2024-02-28T15:08:49;19.30;42.40
6986;DHT22;3533;51.246;6.850;2024-02-28T15:11:15;19.20;42.30
6986;DHT22;3533;51.246;6.850;2024-02-28T15:13:41;19.30;42.50
6986;DHT22;3533;51.246;6.850;2024-02-28T15:16:06;19.20;42.40
6986;DHT22;3533;51.246;6.850;2024-02-28T15:18:32;19.30;42.50
6986;DHT22;3533;51.246;6.850;2024-02-28T15:20:58;19.30;43.20
6986;DHT22;3533;51.246;6.850;2024-02-28T15:23:24;19.30;42.50
6986;DHT22;3533;51.246;6.850;2024-02-28T15:25:50;19.20;42.40
6986;DHT22;3533;51.246;6.850;2024-02-28T15:28:20;19.20;42.40
6986;DHT22;3533;51.246;6.850;2024-02-28T15:30:46;19.20;42.50
6986;DHT22;3533;51.246;6.850;2024-02-28T15:33:13;19.20;42.40
6986;DHT22;3533;51.246;6.850;2024-02-28T15:35:39;19.30;42.50
6986;DHT22;3533;51.246;6.850;2024-02-28T15:38:05;19.20;42.50
6986;DHT22;3533;51.246;6.850;2024-02-28T15:40:30;19.30;42.50
6986;DHT22;3533;51.246;6.850;2024-02-28T15:42:56;19.20;42.50
6986;DHT22;3533;51.246;6.850;2024-02-28T15:45:24;19.30;42.50
6986;DHT22;3533;51.246;6.850;2024-02-28T15:47:49;19.30;42.60
6986;DHT22;3533;51.246;6.850;2024-02-28T15:50:16;19.20;42.40
6986;DHT22;3533;51.246;6.850;2024-02-28T15:52:43;19.30;42.60
6986;DHT22;3533;51.246;6.850;2024-02-28T15:55:10;19.30;42.60
6986;DHT22;3533;51.246;6.850;2024-02-28T15:57:37;19.30;42.60